createdAt,value
2023-02-16T00:01:53.246Z,17.75
2023-02-16T00:04:31.964Z,15.70
2023-02-16T00:07:02.238Z,14.85
2023-02-16T00:09:29.214Z,16.58
2023-02-16T00:12:14.889Z,16.27
2023-02-16T00:14:41.695Z,15.65
2023-02-16T00:17:11.499Z,16.80
2023-02-16T00:19:40.802Z,17.33
2023-02-16T00:22:10.998Z,15.55
2023-02-16T00:24:39.379Z,16.30
2023-02-16T00:27:13.960Z,16.60
2023-02-16T00:29:40.730Z,16.48
2023-02-16T00:32:12.319Z,15.90
2023-02-16T00:34:41.616Z,17.08
2023-02-16T00:37:10.775Z,16.33
2023-02-16T00:39:38.535Z,17.15
2023-02-16T00:42:12.493Z,15.63
2023-02-16T00:44:45.437Z,18.70
2023-02-16T00:47:32.301Z,17.63
2023-02-16T00:49:59.566Z,16.63
2023-02-16T00:52:36.912Z,17.92
2023-02-16T00:55:13.269Z,17.15
2023-02-16T00:57:50.511Z,17.85
2023-02-16T01:00:21.357Z,17.05
2023-02-16T01:02:50.625Z,16.73
2023-02-16T01:05:20.008Z,17.83
2023-02-16T01:08:05.812Z,18.08
2023-02-16T01:10:53.644Z,17.70
2023-02-16T01:13:20.815Z,16.90
2023-02-16T01:15:47.665Z,17.23
2023-02-16T01:18:16.291Z,16.45
2023-02-16T01:20:43.659Z,14.65
2023-02-16T01:23:10.445Z,17.27
2023-02-16T01:25:37.806Z,15.60
2023-02-16T01:28:19.022Z,19.45
2023-02-16T01:30:45.926Z,18.55
2023-02-16T01:33:12.743Z,18.48
2023-02-16T01:35:39.860Z,16.10
2023-02-16T01:38:06.787Z,17.73
2023-02-16T01:40:33.514Z,17.60
2023-02-16T01:43:16.739Z,16.67
2023-02-16T01:45:47.775Z,16.23
2023-02-16T01:48:24.564Z,15.48
2023-02-16T01:51:36.308Z,16.83
2023-02-16T01:54:54.756Z,17.20
2023-02-16T01:57:41.640Z,17.90
2023-02-16T02:00:27.430Z,17.08
2023-02-16T02:03:22.875Z,18.48
2023-02-16T02:05:51.036Z,19.08
2023-02-16T02:08:36.944Z,17.75
2023-02-16T02:11:29.539Z,18.75
2023-02-16T02:14:26.794Z,16.55
2023-02-16T02:17:10.842Z,16.85
2023-02-16T02:19:56.420Z,18.15
2023-02-16T02:23:22.460Z,19.73
2023-02-16T02:26:13.912Z,19.02
2023-02-16T02:29:10.946Z,16.85
2023-02-16T02:32:05.027Z,16.67
2023-02-16T02:34:59.026Z,17.25
2023-02-16T02:37:39.395Z,16.98
2023-02-16T02:40:14.980Z,18.83
2023-02-16T02:43:00.215Z,15.93
2023-02-16T02:46:19.139Z,17.40
2023-02-16T02:48:46.641Z,18.02
2023-02-16T02:51:29.772Z,17.83
2023-02-16T02:54:24.796Z,17.90
2023-02-16T02:57:39.863Z,17.63
2023-02-16T03:00:31.794Z,17.98
2023-02-16T03:03:20.751Z,17.35
2023-02-16T03:05:59.580Z,16.67
2023-02-16T03:08:30.133Z,18.45
2023-02-16T03:11:28.283Z,18.63
2023-02-16T03:14:00.963Z,16.17
2023-02-16T03:16:34.698Z,18.33
2023-02-16T03:19:22.755Z,18.20
2023-02-16T03:22:08.846Z,17.95
2023-02-16T03:24:54.399Z,15.93
2023-02-16T03:27:54.296Z,17.17
2023-02-16T03:30:22.207Z,17.13
2023-02-16T03:32:49.363Z,16.35
2023-02-16T03:35:16.344Z,17.52
2023-02-16T03:37:44.744Z,16.77
2023-02-16T03:40:32.560Z,15.93
2023-02-16T03:43:02.446Z,17.52
2023-02-16T03:45:30.718Z,17.90
2023-02-16T03:47:57.660Z,17.17
2023-02-16T03:50:26.604Z,16.27
2023-02-16T03:53:06.453Z,16.55
2023-02-16T03:55:40.347Z,17.33
2023-02-16T03:58:09.520Z,16.00
2023-02-16T04:00:37.045Z,16.05
2023-02-16T04:03:05.070Z,17.00
2023-02-16T04:05:32.674Z,16.27
2023-02-16T04:07:59.374Z,16.33
2023-02-16T04:10:26.381Z,16.77
2023-02-16T04:12:53.426Z,16.67
2023-02-16T04:15:23.728Z,16.17
2023-02-16T04:17:50.542Z,16.02
2023-02-16T04:20:25.589Z,17.55
2023-02-16T04:22:53.072Z,17.27
2023-02-16T04:25:20.669Z,14.90
2023-02-16T04:27:49.904Z,15.73
2023-02-16T04:30:22.464Z,16.50
2023-02-16T04:32:49.760Z,15.45
2023-02-16T04:35:17.606Z,17.17
2023-02-16T04:37:44.709Z,14.75
2023-02-16T04:40:13.609Z,17.08
2023-02-16T04:42:41.881Z,16.77
2023-02-16T04:45:11.601Z,16.58
2023-02-16T04:47:39.828Z,16.00
2023-02-16T04:50:07.253Z,15.48
2023-02-16T04:52:34.492Z,15.20
2023-02-16T04:55:01.207Z,16.20
2023-02-16T04:57:28.186Z,16.63
2023-02-16T04:59:55.222Z,16.83
2023-02-16T05:02:22.279Z,16.88
2023-02-16T05:04:49.036Z,15.45
2023-02-16T05:07:15.840Z,15.00
2023-02-16T05:09:42.658Z,17.80
2023-02-16T05:12:29.438Z,14.30
2023-02-16T05:14:56.228Z,15.40
2023-02-16T05:17:25.278Z,14.95
2023-02-16T05:19:57.608Z,15.70
2023-02-16T05:22:25.165Z,16.92
2023-02-16T05:24:52.353Z,15.93
2023-02-16T05:27:22.045Z,14.82
2023-02-16T05:29:49.346Z,15.15
2023-02-16T05:32:16.604Z,14.35
2023-02-16T05:34:46.654Z,15.35
2023-02-16T05:37:14.849Z,14.77
2023-02-16T05:39:42.143Z,15.77
2023-02-16T05:42:09.471Z,14.57
2023-02-16T05:44:37.575Z,15.77
2023-02-16T05:47:04.717Z,15.45
2023-02-16T05:49:31.554Z,15.65
2023-02-16T05:51:59.254Z,14.10
2023-02-16T05:54:27.878Z,14.45
2023-02-16T05:56:54.760Z,15.15
2023-02-16T05:59:21.556Z,14.43
2023-02-16T06:01:51.638Z,15.20
2023-02-16T06:04:20.244Z,13.85
2023-02-16T06:06:47.065Z,15.55
2023-02-16T06:09:14.091Z,13.68
2023-02-16T06:11:41.056Z,15.18
2023-02-16T06:14:11.068Z,13.93
2023-02-16T06:16:39.838Z,14.55
2023-02-16T06:19:07.011Z,15.65
2023-02-16T06:21:35.106Z,14.57
2023-02-16T06:24:02.240Z,15.25
2023-02-16T06:26:29.271Z,15.57
2023-02-16T06:28:56.308Z,15.23
2023-02-16T06:31:25.023Z,15.35
2023-02-16T06:33:52.671Z,15.02
2023-02-16T06:36:19.916Z,14.90
2023-02-16T06:38:46.736Z,14.10
2023-02-16T06:41:13.646Z,13.57
2023-02-16T06:43:40.314Z,15.57
2023-02-16T06:46:07.110Z,14.50
2023-02-16T06:48:34.373Z,13.48
2023-02-16T06:51:01.166Z,13.57
2023-02-16T06:53:27.940Z,13.30
2023-02-16T06:55:54.684Z,14.20
2023-02-16T06:58:21.369Z,13.30
2023-02-16T07:00:48.149Z,15.60
2023-02-16T07:03:15.061Z,14.40
2023-02-16T07:05:44.012Z,15.48
2023-02-16T07:08:10.745Z,13.90
2023-02-16T07:10:50.052Z,15.10
2023-02-16T07:13:17.181Z,14.32
2023-02-16T07:15:43.954Z,14.00
2023-02-16T07:18:10.651Z,12.27
2023-02-16T07:20:37.826Z,13.55
2023-02-16T07:23:04.612Z,13.35
2023-02-16T07:25:31.394Z,12.10
2023-02-16T07:27:58.160Z,13.13
2023-02-16T07:30:25.265Z,14.25
2023-02-16T07:32:52.179Z,13.27
2023-02-16T07:35:18.902Z,13.95
2023-02-16T07:37:45.608Z,13.23
2023-02-16T07:40:12.784Z,14.40
2023-02-16T07:42:39.644Z,13.98
2023-02-16T07:45:06.754Z,13.55
2023-02-16T07:47:33.487Z,14.23
2023-02-16T07:50:00.248Z,12.82
2023-02-16T07:52:30.839Z,13.75
2023-02-16T07:55:01.394Z,14.32
2023-02-16T07:57:28.805Z,14.07
2023-02-16T07:59:56.053Z,14.88
2023-02-16T08:02:23.750Z,12.43
2023-02-16T08:04:52.614Z,12.70
2023-02-16T08:07:19.894Z,12.80
2023-02-16T08:09:46.900Z,13.82
2023-02-16T08:12:15.364Z,13.18
2023-02-16T08:14:42.943Z,13.18
2023-02-16T08:17:10.343Z,13.93
2023-02-16T08:19:38.558Z,13.18
2023-02-16T08:22:06.160Z,14.73
2023-02-16T08:24:37.301Z,13.00
2023-02-16T08:27:05.446Z,12.00
2023-02-16T08:29:33.230Z,13.35
2023-02-16T08:32:01.318Z,13.52
2023-02-16T08:34:29.923Z,13.50
2023-02-16T08:36:57.558Z,14.35
2023-02-16T08:39:26.340Z,13.82
2023-02-16T08:41:54.367Z,13.90
2023-02-16T08:44:23.803Z,13.45
2023-02-16T08:46:52.153Z,13.75
2023-02-16T08:49:22.152Z,13.60
2023-02-16T08:51:52.063Z,13.80
2023-02-16T08:54:22.366Z,13.95
2023-02-16T08:56:49.555Z,14.57
2023-02-16T08:59:18.150Z,14.20
2023-02-16T09:01:45.669Z,14.65
2023-02-16T09:04:13.042Z,13.30
2023-02-16T09:06:42.468Z,13.95
2023-02-16T09:09:09.909Z,13.88
2023-02-16T09:11:37.397Z,14.93
2023-02-16T09:14:04.795Z,13.77
2023-02-16T09:16:35.253Z,14.07
2023-02-16T09:19:02.207Z,14.60
2023-02-16T09:21:32.991Z,14.65
2023-02-16T09:24:03.278Z,14.77
2023-02-16T09:26:38.438Z,13.60
2023-02-16T09:29:06.987Z,13.95
2023-02-16T09:31:36.914Z,13.48
2023-02-16T09:34:19.084Z,14.15
2023-02-16T09:36:47.164Z,13.88
2023-02-16T09:39:14.239Z,12.00
2023-02-16T09:41:40.988Z,14.05
2023-02-16T09:44:21.622Z,14.20
2023-02-16T09:46:49.403Z,14.38
2023-02-16T09:49:25.281Z,14.88
2023-02-16T09:52:16.430Z,13.38
2023-02-16T09:54:52.578Z,12.52
2023-02-16T09:57:37.881Z,13.38
2023-02-16T10:00:23.556Z,13.13
2023-02-16T10:02:56.125Z,13.57
2023-02-16T10:05:23.015Z,14.70
2023-02-16T10:08:00.769Z,13.50
2023-02-16T10:10:56.642Z,14.48
2023-02-16T10:13:37.350Z,13.38
2023-02-16T10:16:07.290Z,13.63
2023-02-16T10:18:38.184Z,13.35
2023-02-16T10:21:13.849Z,14.05
2023-02-16T10:23:49.355Z,13.38
2023-02-16T10:26:21.354Z,13.65
2023-02-16T10:28:54.852Z,13.85
2023-02-16T10:31:44.323Z,13.32
2023-02-16T10:34:42.676Z,12.35
2023-02-16T10:37:31.042Z,13.95
2023-02-16T10:39:57.787Z,14.82
2023-02-16T10:42:41.426Z,13.40
2023-02-16T10:45:15.274Z,13.90
2023-02-16T10:47:45.103Z,13.30
2023-02-16T10:50:23.849Z,13.10
2023-02-16T10:52:53.784Z,12.98
2023-02-16T10:55:21.176Z,14.10
2023-02-16T10:58:00.406Z,12.93
2023-02-16T11:00:45.026Z,12.90
2023-02-16T11:03:13.765Z,14.55
2023-02-16T11:05:41.900Z,12.15
2023-02-16T11:08:12.593Z,13.48
2023-02-16T11:10:51.774Z,14.13
2023-02-16T11:13:32.847Z,14.07
2023-02-16T11:16:13.776Z,12.23
2023-02-16T11:18:45.433Z,12.68
2023-02-16T11:21:14.240Z,12.73
2023-02-16T11:23:43.058Z,11.75
2023-02-16T11:26:10.038Z,12.57
2023-02-16T11:28:40.024Z,12.45
2023-02-16T11:31:26.309Z,12.30
2023-02-16T11:34:11.731Z,11.23
2023-02-16T11:36:41.532Z,12.73
2023-02-16T11:39:18.563Z,12.80
2023-02-16T11:41:52.619Z,10.88
2023-02-16T11:44:32.484Z,12.10
2023-02-16T11:47:02.456Z,11.32
2023-02-16T11:49:34.529Z,13.35
2023-02-16T11:52:25.531Z,11.35
2023-02-16T11:54:57.885Z,11.80
2023-02-16T11:57:31.116Z,10.10
2023-02-16T11:59:59.500Z,11.88
2023-02-16T12:02:51.726Z,11.25
2023-02-16T12:05:31.657Z,10.75
2023-02-16T12:08:28.934Z,10.45
2023-02-16T12:11:15.698Z,9.73
2023-02-16T12:14:01.790Z,10.82
2023-02-16T12:16:54.524Z,11.82
2023-02-16T12:19:44.537Z,9.88
2023-02-16T12:22:14.232Z,10.90
2023-02-16T12:24:55.708Z,11.27
2023-02-16T12:27:42.433Z,11.52
2023-02-16T12:30:12.457Z,11.15
2023-02-16T12:32:48.389Z,10.57
2023-02-16T12:35:41.239Z,10.00
2023-02-16T12:38:36.586Z,10.77
2023-02-16T12:41:36.916Z,9.95
2023-02-16T12:44:08.524Z,10.85
2023-02-16T12:46:40.845Z,11.35
2023-02-16T12:49:24.314Z,11.05
2023-02-16T12:52:04.232Z,9.45
2023-02-16T12:54:49.465Z,9.32
2023-02-16T12:57:20.583Z,10.43
2023-02-16T13:00:03.796Z,10.27
2023-02-16T13:02:42.397Z,10.85
2023-02-16T13:05:13.338Z,9.68
2023-02-16T13:07:47.236Z,9.80
2023-02-16T13:10:54.583Z,9.48
2023-02-16T13:13:26.432Z,9.85
2023-02-16T13:16:05.073Z,9.30
2023-02-16T13:18:36.475Z,9.52
2023-02-16T13:21:15.363Z,10.13
2023-02-16T13:23:56.190Z,10.25
2023-02-16T13:26:32.296Z,9.50
2023-02-16T13:29:23.359Z,10.38
2023-02-16T13:32:28.375Z,9.65
2023-02-16T13:35:08.666Z,9.75
2023-02-16T13:38:12.325Z,9.90
2023-02-16T13:40:57.806Z,10.30
2023-02-16T13:43:42.303Z,10.10
2023-02-16T13:46:33.227Z,9.10
2023-02-16T13:49:02.038Z,8.68
2023-02-16T13:51:41.841Z,8.30
2023-02-16T13:54:43.507Z,7.88
2023-02-16T13:57:15.033Z,6.85
2023-02-16T13:59:50.838Z,9.27
2023-02-16T14:02:56.175Z,9.20
2023-02-16T14:05:27.432Z,7.45
2023-02-16T14:08:17.138Z,10.15
2023-02-16T14:10:55.956Z,9.30
2023-02-16T14:13:33.668Z,8.30
2023-02-16T14:16:08.775Z,9.05
2023-02-16T14:18:41.728Z,9.38
2023-02-16T14:21:27.381Z,9.17
2023-02-16T14:23:56.809Z,8.65
2023-02-16T14:26:24.358Z,7.20
2023-02-16T14:29:17.792Z,7.82
2023-02-16T14:31:55.003Z,7.67
2023-02-16T14:34:30.647Z,8.20
2023-02-16T14:37:20.806Z,8.13
2023-02-16T14:40:06.818Z,7.85
2023-02-16T14:42:35.662Z,8.98
2023-02-16T14:45:19.689Z,9.00
2023-02-16T14:47:46.520Z,8.70
2023-02-16T14:50:28.541Z,8.13
2023-02-16T14:53:26.359Z,7.65
2023-02-16T14:56:03.006Z,7.97
2023-02-16T14:58:38.367Z,7.45
2023-02-16T15:01:11.785Z,7.47
2023-02-16T15:03:45.276Z,7.32
2023-02-16T15:06:53.518Z,7.28
2023-02-16T15:09:27.081Z,8.98
2023-02-16T15:14:54.010Z,8.32
2023-02-16T15:17:44.864Z,6.95
2023-02-16T15:20:27.438Z,8.02
2023-02-16T15:23:02.935Z,8.43
2023-02-16T15:25:38.607Z,8.00
2023-02-16T15:28:27.414Z,8.10
2023-02-16T15:30:59.633Z,8.10
2023-02-16T15:33:40.522Z,8.93
2023-02-16T15:36:14.077Z,8.20
2023-02-16T15:38:52.706Z,8.20
2023-02-16T15:41:34.414Z,7.28
2023-02-16T15:44:03.830Z,8.05
2023-02-16T15:46:34.526Z,7.95
2023-02-16T15:49:20.195Z,8.40
2023-02-16T15:51:47.675Z,7.30
2023-02-16T15:54:24.744Z,8.98
2023-02-16T15:56:54.256Z,8.13
2023-02-16T16:00:06.118Z,8.88
2023-02-16T16:02:43.691Z,8.85
2023-02-16T16:05:22.020Z,7.68
2023-02-16T16:07:49.877Z,8.52
2023-02-16T16:10:28.871Z,8.05
2023-02-16T16:13:00.051Z,7.72
2023-02-16T16:15:28.827Z,7.97
2023-02-16T16:17:59.634Z,7.85
2023-02-16T16:20:35.830Z,7.43
2023-02-16T16:23:26.984Z,6.88
2023-02-16T16:25:55.716Z,7.80
2023-02-16T16:28:28.530Z,7.35
2023-02-16T16:31:14.827Z,7.40
2023-02-16T16:33:53.555Z,7.15
2023-02-16T16:36:21.199Z,7.28
2023-02-16T16:38:48.180Z,8.20
2023-02-16T16:41:27.304Z,7.68
2023-02-16T16:43:56.376Z,7.75
2023-02-16T16:46:28.505Z,7.93
2023-02-16T16:49:03.226Z,9.75
2023-02-16T16:51:33.057Z,7.57
2023-02-16T16:54:01.896Z,8.45
2023-02-16T16:56:30.389Z,8.10
2023-02-16T16:58:58.698Z,8.35
2023-02-16T17:01:27.270Z,6.72
2023-02-16T17:03:54.130Z,6.93
2023-02-16T17:06:21.942Z,8.32
2023-02-16T17:08:48.719Z,8.38
2023-02-16T17:11:24.794Z,8.80
2023-02-16T17:13:54.562Z,8.18
2023-02-16T17:16:36.589Z,9.13
2023-02-16T17:19:03.839Z,8.13
2023-02-16T17:21:30.884Z,7.97
2023-02-16T17:23:57.671Z,9.35
2023-02-16T17:26:24.678Z,8.88
2023-02-16T17:28:51.530Z,8.57
2023-02-16T17:31:18.443Z,8.10
2023-02-16T17:33:45.164Z,8.60
2023-02-16T17:36:15.427Z,8.30
2023-02-16T17:38:42.596Z,7.70
2023-02-16T17:41:30.081Z,8.82
2023-02-16T17:43:56.745Z,9.55
2023-02-16T17:46:24.678Z,9.80
2023-02-16T17:48:54.875Z,10.20
2023-02-16T17:51:24.154Z,9.93
2023-02-16T17:53:52.637Z,9.20
2023-02-16T17:56:21.808Z,9.73
2023-02-16T17:58:49.015Z,9.15
2023-02-16T18:01:18.123Z,9.02
2023-02-16T18:03:45.261Z,9.77
2023-02-16T18:06:14.627Z,7.90
2023-02-16T18:08:41.547Z,9.90
2023-02-16T18:11:08.440Z,10.10
2023-02-16T18:13:35.291Z,9.27
2023-02-16T18:16:07.132Z,10.52
2023-02-16T18:18:36.688Z,10.48
2023-02-16T18:21:03.714Z,11.35
2023-02-16T18:23:30.532Z,9.55
2023-02-16T18:25:57.432Z,11.32
2023-02-16T18:28:29.548Z,9.77
2023-02-16T18:30:56.912Z,9.50
2023-02-16T18:33:24.372Z,9.55
2023-02-16T18:35:53.145Z,10.55
2023-02-16T18:38:22.088Z,9.18
2023-02-16T18:40:50.053Z,10.52
2023-02-16T18:43:16.846Z,10.02
2023-02-16T18:45:43.825Z,10.05
2023-02-16T18:48:11.248Z,9.98
2023-02-16T18:50:38.570Z,10.93
2023-02-16T18:53:06.321Z,9.63
2023-02-16T18:55:33.309Z,10.48
2023-02-16T18:58:01.121Z,8.45
2023-02-16T19:00:28.375Z,10.95
2023-02-16T19:02:56.836Z,8.50
2023-02-16T19:05:24.163Z,8.48
2023-02-16T19:07:50.975Z,8.52
2023-02-16T19:10:18.834Z,9.27
2023-02-16T19:12:45.613Z,8.05
2023-02-16T19:15:12.367Z,8.25
2023-02-16T19:17:39.150Z,8.40
2023-02-16T19:20:09.654Z,6.97
2023-02-16T19:22:37.196Z,9.35
2023-02-16T19:25:07.431Z,8.63
2023-02-16T19:27:34.613Z,8.68
2023-02-16T19:30:01.513Z,7.68
2023-02-16T19:32:29.353Z,8.50
2023-02-16T19:34:56.189Z,8.23
2023-02-16T19:37:23.244Z,9.23
2023-02-16T19:39:50.185Z,7.85
2023-02-16T19:42:17.070Z,6.65
2023-02-16T19:44:43.852Z,7.88
2023-02-16T19:47:10.641Z,6.93
2023-02-16T19:49:37.550Z,8.35
2023-02-16T19:52:04.904Z,8.60
2023-02-16T19:54:34.801Z,7.53
2023-02-16T19:57:02.629Z,7.90
2023-02-16T19:59:29.838Z,7.57
2023-02-16T20:01:56.972Z,6.97
2023-02-16T20:04:23.863Z,7.47
2023-02-16T20:06:51.403Z,7.80
2023-02-16T20:09:18.403Z,7.90
2023-02-16T20:11:45.740Z,7.43
2023-02-16T20:14:13.189Z,6.63
2023-02-16T20:16:40.920Z,7.38
2023-02-16T20:19:08.047Z,8.73
2023-02-16T20:21:34.926Z,6.88
2023-02-16T20:24:04.373Z,8.15
2023-02-16T20:26:35.931Z,6.95
2023-02-16T20:29:04.363Z,6.50
2023-02-16T20:31:33.322Z,7.47
2023-02-16T20:34:01.051Z,7.47
2023-02-16T20:36:27.871Z,7.80
2023-02-16T20:38:54.771Z,7.03
2023-02-16T20:41:22.214Z,6.70
2023-02-16T20:43:49.342Z,7.45
2023-02-16T20:46:17.274Z,6.47
2023-02-16T20:48:44.784Z,7.28
2023-02-16T20:51:13.606Z,6.65
2023-02-16T20:53:40.560Z,6.53
2023-02-16T20:56:16.704Z,6.03
2023-02-16T20:58:45.593Z,6.88
2023-02-16T21:01:29.678Z,6.43
2023-02-16T21:03:58.549Z,5.80
2023-02-16T21:06:26.053Z,5.60
2023-02-16T21:08:52.878Z,4.82
2023-02-16T21:11:20.046Z,4.88
2023-02-16T21:13:47.220Z,5.70
2023-02-16T21:16:14.744Z,5.65
2023-02-16T21:18:42.011Z,4.50
2023-02-16T21:21:09.847Z,6.22
2023-02-16T21:23:36.613Z,4.82
2023-02-16T21:26:05.834Z,5.63
2023-02-16T21:28:32.956Z,5.10
2023-02-16T21:31:06.061Z,4.85
2023-02-16T21:33:33.079Z,4.53
2023-02-16T21:36:05.168Z,3.85
2023-02-16T21:38:32.219Z,4.95
2023-02-16T21:41:22.698Z,3.95
2023-02-16T21:43:49.654Z,4.03
2023-02-16T21:46:16.547Z,3.80
2023-02-16T21:48:47.039Z,3.55
2023-02-16T21:51:16.483Z,3.92
2023-02-16T21:53:43.453Z,2.72
2023-02-16T21:56:31.102Z,3.83
2023-02-16T21:58:58.334Z,3.15
2023-02-16T22:01:28.689Z,2.90
2023-02-16T22:03:58.452Z,3.15
2023-02-16T22:06:27.747Z,2.95
2023-02-16T22:08:54.623Z,2.72
2023-02-16T22:11:21.835Z,3.13
2023-02-16T22:13:53.450Z,2.50
2023-02-16T22:16:20.590Z,2.60
2023-02-16T22:18:47.818Z,2.90
2023-02-16T22:21:15.899Z,3.50
2023-02-16T22:23:43.041Z,3.10
2023-02-16T22:26:26.282Z,3.17
2023-02-16T22:28:53.526Z,3.45
2023-02-16T22:31:22.224Z,2.97
2023-02-16T22:33:54.342Z,2.70
2023-02-16T22:36:21.567Z,4.15
2023-02-16T22:38:48.234Z,3.05
2023-02-16T22:41:14.982Z,3.00
2023-02-16T22:43:41.677Z,2.88
2023-02-16T22:46:13.024Z,2.03
2023-02-16T22:48:40.243Z,3.03
2023-02-16T22:51:09.145Z,2.45
2023-02-16T22:53:36.634Z,2.95
2023-02-16T22:56:10.051Z,2.67
2023-02-16T22:58:36.817Z,2.63
2023-02-16T23:01:04.420Z,2.97
2023-02-16T23:03:31.762Z,2.58
2023-02-16T23:05:58.450Z,2.20
2023-02-16T23:08:25.154Z,2.13
2023-02-16T23:11:00.873Z,1.30
2023-02-16T23:13:30.148Z,2.03
2023-02-16T23:16:02.543Z,2.42
2023-02-16T23:18:29.692Z,2.47
2023-02-16T23:21:03.685Z,2.00
2023-02-16T23:23:30.540Z,2.35
2023-02-16T23:25:57.386Z,2.35
2023-02-16T23:28:24.224Z,2.47
2023-02-16T23:30:51.025Z,2.15
2023-02-16T23:33:17.864Z,2.47
2023-02-16T23:35:44.648Z,2.40
2023-02-16T23:38:14.324Z,2.10
2023-02-16T23:40:42.625Z,1.92
2023-02-16T23:43:10.874Z,2.42
2023-02-16T23:45:38.206Z,2.42
2023-02-16T23:48:04.974Z,2.08
2023-02-16T23:50:31.749Z,2.13
2023-02-16T23:52:58.542Z,1.63
2023-02-16T23:55:25.243Z,1.70
2023-02-16T23:57:51.988Z,1.63
